Terminal Aerodrome Forecast
Issued by NWS Charleston, WV

Current Version | Previous Version | Graphics & Text | Print | Product List | Glossary On
Versions: 1 2 3 4 5 6 7 8 9 10 11 12 13 14 15 16 17 18 19 20 21 22 23 24
526
FTUS41 KRLX 262333
TAFHTS
TAF
KHTS 262333Z 2700/2724 29005KT P6SM SCT030
     FM270800 VRB02KT 4SM BR FEW030
     FM270900 VRB03KT 1/4SM FG OVC001
     FM271200 VRB03KT 1 1/2SM BR OVC001
     FM271300 22004KT 5SM BR FEW001
     FM271400 23004KT P6SM SKC=

USA.gov is the U.S. government's official web portal to all federal, state and local government web resources and services.